Time;durP1;ratioP1;P1;durP2;ratioP2;P2;SDS_P1;SDS_P2;PMS_P1;PMS_P2;Temp;Humidity;BMP_temperature;BMP_pressure;BME280_temperature;BME280_humidity;BME280_pressure;Samples;Min_cycle;Max_cycle;Signal;HPM_P1;HPM_P2
2021/08/14 00:00:00;;;;;;;11.77;9.17;;;;;;;19.80;100.00;98566.22;5056058;28;20230;-70
2021/08/14 00:02:28;;;;;;;9.00;8.20;;;;;;;19.88;100.00;98567.84;5055263;28;20210;-70
2021/08/14 00:04:56;;;;;;;9.50;8.80;;;;;;;19.72;100.00;98563.75;5053032;28;20214;-68
2021/08/14 00:07:24;;;;;;;9.33;8.50;;;;;;;19.59;100.00;98569.13;5057870;28;20319;-69
2021/08/14 00:09:52;;;;;;;9.50;8.60;;;;;;;19.49;100.00;98570.38;5056143;28;20580;-70
2021/08/14 00:12:21;;;;;;;10.53;9.63;;;;;;;19.38;100.00;98574.53;5053832;28;20214;-70
2021/08/14 00:14:49;;;;;;;10.77;9.20;;;;;;;19.23;100.00;98581.97;5057775;28;20218;-71
2021/08/14 00:17:17;;;;;;;10.20;9.07;;;;;;;19.17;100.00;98585.50;5056963;28;20222;-69
2021/08/14 00:19:45;;;;;;;11.37;9.33;;;;;;;19.19;100.00;98586.09;5050447;28;20387;-70
2021/08/14 00:22:13;;;;;;;11.33;10.20;;;;;;;19.08;100.00;98596.41;5056250;28;20212;-69
2021/08/14 00:24:42;;;;;;;10.27;9.37;;;;;;;18.97;100.00;98599.66;5055467;28;20570;-69
2021/08/14 00:27:10;;;;;;;10.03;9.23;;;;;;;18.90;100.00;98594.28;5054082;28;20242;-69
2021/08/14 00:29:39;;;;;;;10.20;9.33;;;;;;;18.85;100.00;98596.75;5054021;28;20219;-70
2021/08/14 00:32:07;;;;;;;9.60;8.67;;;;;;;18.95;100.00;98602.56;5056646;28;20210;-69
2021/08/14 00:34:35;;;;;;;10.43;9.53;;;;;;;18.82;100.00;98591.78;5055027;28;20211;-70
2021/08/14 00:37:03;;;;;;;10.33;9.37;;;;;;;18.80;100.00;98589.31;5054614;28;20278;-70
2021/08/14 00:39:31;;;;;;;9.90;8.90;;;;;;;18.74;100.00;98582.06;5055049;28;20246;-70
2021/08/14 00:41:59;;;;;;;10.43;9.53;;;;;;;18.71;100.00;98587.00;5053012;28;20211;-69
2021/08/14 00:44:27;;;;;;;9.70;8.80;;;;;;;18.68;100.00;98577.50;5052016;28;20530;-69
2021/08/14 00:46:56;;;;;;;9.83;9.03;;;;;;;18.67;100.00;98578.53;5057533;28;20303;-70
2021/08/14 00:49:24;;;;;;;10.10;9.27;;;;;;;18.61;100.00;98580.19;5058172;28;20258;-70
2021/08/14 00:51:52;;;;;;;10.90;9.80;;;;;;;18.56;100.00;98571.91;5057919;28;20207;-70
2021/08/14 00:54:20;;;;;;;11.43;8.50;;;;;;;18.50;100.00;98580.75;5058183;28;20203;-69
2021/08/14 00:56:49;;;;;;;9.47;8.70;;;;;;;18.43;100.00;98572.69;5053650;28;20230;-70
2021/08/14 00:59:17;;;;;;;10.60;9.33;;;;;;;18.45;100.00;98584.06;5051967;28;20738;-70
2021/08/14 01:01:46;;;;;;;10.13;9.23;;;;;;;18.42;100.00;98575.56;5051265;28;20202;-70
2021/08/14 01:04:15;;;;;;;9.80;8.90;;;;;;;18.39;100.00;98579.50;5059381;28;20297;-70
2021/08/14 01:06:43;;;;;;;10.10;9.40;;;;;;;18.31;100.00;98574.28;5055721;28;20536;-70
2021/08/14 01:09:11;;;;;;;10.50;9.57;;;;;;;18.26;100.00;98577.56;5057423;28;20223;-70
2021/08/14 01:11:40;;;;;;;10.83;9.87;;;;;;;18.28;100.00;98580.88;5061185;28;20199;-68
2021/08/14 01:14:08;;;;;;;10.37;9.07;;;;;;;18.19;100.00;98576.72;5053708;28;20222;-70
2021/08/14 01:16:35;;;;;;;10.30;9.50;;;;;;;18.10;100.00;98576.06;5058996;28;20593;-69
2021/08/14 01:19:05;;;;;;;9.33;8.63;;;;;;;18.06;100.00;98580.16;5051912;28;20458;-70
2021/08/14 01:21:34;;;;;;;10.87;9.87;;;;;;;17.94;100.00;98579.84;5057326;28;20222;-70
2021/08/14 01:24:04;;;;;;;9.97;9.07;;;;;;;17.88;100.00;98576.09;5054216;28;20217;-69
2021/08/14 01:26:32;;;;;;;10.87;9.97;;;;;;;17.84;100.00;98585.56;5054034;28;20829;-70
2021/08/14 01:29:02;;;;;;;9.73;9.03;;;;;;;17.73;100.00;98576.19;5057385;28;20272;-70
2021/08/14 01:31:30;;;;;;;11.10;9.97;;;;;;;17.68;100.00;98583.19;5053734;28;20211;-69
2021/08/14 01:33:58;;;;;;;9.93;9.13;;;;;;;17.65;100.00;98582.56;5059915;28;20260;-69
2021/08/14 01:36:26;;;;;;;9.77;9.07;;;;;;;17.59;100.00;98574.47;5053483;28;20222;-70
2021/08/14 01:38:55;;;;;;;10.43;9.50;;;;;;;17.46;100.00;98577.88;5056010;28;20231;-70
2021/08/14 01:41:23;;;;;;;11.27;10.07;;;;;;;17.42;100.00;98581.97;5048611;28;20606;-70
2021/08/14 01:43:57;;;;;;;10.87;9.83;;;;;;;17.38;100.00;98583.38;5055895;28;20670;-71
2021/08/14 01:46:28;;;;;;;10.73;9.63;;;;;;;17.32;100.00;98577.78;5056802;28;20199;-70
2021/08/14 01:48:56;;;;;;;10.60;9.70;;;;;;;17.28;100.00;98578.34;5054473;28;20227;-71
2021/08/14 01:51:24;;;;;;;11.47;10.47;;;;;;;17.25;100.00;98579.56;5054580;28;20206;-70
2021/08/14 01:53:54;;;;;;;10.33;9.40;;;;;;;17.20;100.00;98582.81;5053881;28;20207;-70
2021/08/14 01:56:22;;;;;;;12.40;10.90;;;;;;;17.18;100.00;98579.50;5053696;28;20747;-69
2021/08/14 01:58:51;;;;;;;11.37;10.47;;;;;;;17.34;100.00;98580.25;5055048;28;20690;-71
2021/08/14 02:01:19;;;;;;;10.53;9.50;;;;;;;17.21;100.00;98576.44;5053008;28;20694;-69
2021/08/14 02:03:49;;;;;;;10.63;9.73;;;;;;;17.14;100.00;98574.72;5051629;28;20207;-71
2021/08/14 02:06:17;;;;;;;9.87;8.93;;;;;;;17.06;100.00;98579.19;5050349;28;20196;-70
2021/08/14 02:08:45;;;;;;;10.13;9.43;;;;;;;17.02;100.00;98577.06;5050793;28;20367;-70
2021/08/14 02:11:15;;;;;;;11.13;10.23;;;;;;;16.95;100.00;98579.69;5056631;28;20289;-70
2021/08/14 02:13:44;;;;;;;10.97;10.17;;;;;;;16.99;100.00;98578.31;5053562;28;20198;-70
2021/08/14 02:16:13;;;;;;;10.43;9.53;;;;;;;16.97;100.00;98574.97;5056008;28;20214;-71
2021/08/14 02:18:41;;;;;;;11.70;10.67;;;;;;;16.99;100.00;98575.63;5054956;28;20258;-69
2021/08/14 02:21:11;;;;;;;10.20;9.33;;;;;;;16.90;100.00;98582.91;5052865;28;20203;-69
2021/08/14 02:23:39;;;;;;;11.20;10.03;;;;;;;16.75;100.00;98566.09;5049634;28;20226;-69
2021/08/14 02:26:07;;;;;;;11.37;10.40;;;;;;;16.73;100.00;98576.97;5048106;28;20278;-70
2021/08/14 02:28:36;;;;;;;11.30;10.23;;;;;;;16.76;100.00;98575.78;5050163;28;20210;-70
2021/08/14 02:31:04;;;;;;;11.20;10.27;;;;;;;16.72;100.00;98585.22;5045598;28;20611;-70
2021/08/14 02:33:33;;;;;;;11.37;10.27;;;;;;;16.70;100.00;98585.38;5048174;28;20704;-69
2021/08/14 02:36:01;;;;;;;11.53;10.53;;;;;;;16.58;100.00;98581.56;5047838;28;20199;-69
2021/08/14 02:38:31;;;;;;;11.73;10.73;;;;;;;16.54;100.00;98574.91;5051928;28;20227;-70
2021/08/14 02:40:59;;;;;;;11.83;10.87;;;;;;;16.56;100.00;98571.03;5049243;28;20632;-70
2021/08/14 02:43:27;;;;;;;11.73;10.33;;;;;;;16.59;100.00;98567.16;5051506;28;20210;-69
2021/08/14 02:45:55;;;;;;;11.60;10.60;;;;;;;16.59;100.00;98575.19;5051890;28;20206;-70
2021/08/14 02:48:23;;;;;;;12.77;11.67;;;;;;;16.46;100.00;98562.47;5052694;28;20586;-70
2021/08/14 02:50:51;;;;;;;14.80;11.67;;;;;;;16.54;100.00;98575.75;5042514;28;20234;-69
2021/08/14 02:53:19;;;;;;;12.10;11.00;;;;;;;16.46;100.00;98568.63;5036829;28;20211;-71
2021/08/14 02:55:48;;;;;;;12.40;11.40;;;;;;;16.38;100.00;98560.72;5050635;28;20218;-70
2021/08/14 02:58:16;;;;;;;12.60;11.43;;;;;;;16.39;100.00;98565.06;5050799;28;20227;-70
2021/08/14 03:00:44;;;;;;;11.93;10.80;;;;;;;16.37;100.00;98564.44;5051027;28;20655;-70
2021/08/14 03:03:13;;;;;;;11.97;10.93;;;;;;;16.27;100.00;98564.72;5048788;28;20322;-69
2021/08/14 03:05:41;;;;;;;12.13;11.03;;;;;;;16.26;100.00;98568.41;5050167;28;20198;-69
2021/08/14 03:08:10;;;;;;;13.57;12.43;;;;;;;16.27;100.00;98563.91;5048162;28;20210;-70
2021/08/14 03:10:38;;;;;;;11.97;10.97;;;;;;;16.19;100.00;98568.34;5052604;28;20231;-70
2021/08/14 03:13:08;;;;;;;12.10;10.90;;;;;;;16.16;100.00;98566.03;5048035;28;20613;-70
2021/08/14 03:15:36;;;;;;;12.00;10.97;;;;;;;16.08;100.00;98562.63;5047535;28;20230;-70
2021/08/14 03:18:04;;;;;;;11.80;10.70;;;;;;;15.99;100.00;98556.53;5051510;28;20881;-70
2021/08/14 03:20:32;;;;;;;11.73;10.77;;;;;;;16.15;100.00;98561.72;5048252;28;20280;-70
2021/08/14 03:23:01;;;;;;;11.83;10.83;;;;;;;16.06;100.00;98557.44;5054536;28;20290;-71
2021/08/14 03:25:29;;;;;;;12.07;10.87;;;;;;;15.96;100.00;98556.91;5047532;28;20214;-70
2021/08/14 03:27:57;;;;;;;10.90;10.00;;;;;;;15.86;100.00;98560.66;5051916;28;20200;-70
2021/08/14 03:30:26;;;;;;;10.57;9.77;;;;;;;15.84;100.00;98557.34;5049127;28;20685;-69
2021/08/14 03:32:54;;;;;;;11.67;10.67;;;;;;;15.82;100.00;98561.22;5045750;28;20203;-69
2021/08/14 03:35:22;;;;;;;11.80;10.70;;;;;;;15.85;100.00;98556.34;5050062;28;20196;-70
2021/08/14 03:37:50;;;;;;;11.67;10.57;;;;;;;15.81;100.00;98556.88;5052786;28;20222;-70
2021/08/14 03:40:18;;;;;;;11.80;10.83;;;;;;;15.73;100.00;98557.81;5050586;28;20231;-70
2021/08/14 03:42:46;;;;;;;11.17;10.27;;;;;;;15.64;100.00;98557.06;5050247;28;20203;-69
2021/08/14 03:45:15;;;;;;;11.20;10.30;;;;;;;15.60;100.00;98561.94;5050959;28;20204;-70
2021/08/14 03:47:44;;;;;;;13.30;12.20;;;;;;;15.60;100.00;98567.28;5050972;28;20210;-70
2021/08/14 03:50:13;;;;;;;11.40;10.60;;;;;;;15.58;100.00;98574.66;5057227;28;20226;-70
2021/08/14 03:52:41;;;;;;;12.43;11.43;;;;;;;15.52;100.00;98564.69;5052500;28;20589;-70
2021/08/14 03:55:10;;;;;;;11.97;10.97;;;;;;;15.54;100.00;98577.88;5053313;28;20207;-70
2021/08/14 03:57:38;;;;;;;13.40;12.00;;;;;;;15.55;100.00;98572.34;5057194;28;20625;-70
2021/08/14 04:00:07;;;;;;;13.33;12.23;;;;;;;15.49;100.00;98571.22;5052817;28;20241;-70
2021/08/14 04:02:35;;;;;;;12.40;11.50;;;;;;;15.47;100.00;98575.91;5052356;28;20698;-71
2021/08/14 04:05:05;;;;;;;12.57;11.37;;;;;;;15.46;100.00;98568.91;5055936;28;20427;-70
2021/08/14 04:07:33;;;;;;;12.03;11.03;;;;;;;15.53;100.00;98569.03;5054620;28;20217;-70
2021/08/14 04:10:01;;;;;;;12.57;11.40;;;;;;;15.53;100.00;98571.69;5055138;28;20222;-71
2021/08/14 04:12:29;;;;;;;12.43;11.40;;;;;;;15.47;100.00;98570.56;5059959;28;20203;-70
2021/08/14 04:14:59;;;;;;;12.40;11.40;;;;;;;15.56;100.00;98571.31;5051342;28;20203;-70
2021/08/14 04:17:32;;;;;;;11.57;10.60;;;;;;;15.60;100.00;98571.81;5056676;28;20210;-70
2021/08/14 04:20:00;;;;;;;11.80;10.83;;;;;;;15.57;100.00;98569.50;5049039;28;20254;-69
2021/08/14 04:22:29;;;;;;;12.57;11.37;;;;;;;15.53;100.00;98568.19;5048973;28;20200;-69
2021/08/14 04:24:57;;;;;;;11.30;10.27;;;;;;;15.60;100.00;98569.13;5054576;28;20211;-70
2021/08/14 04:27:25;;;;;;;11.97;10.97;;;;;;;15.70;100.00;98568.84;5053548;28;20293;-70
2021/08/14 04:29:53;;;;;;;11.70;10.80;;;;;;;15.66;100.00;98573.75;5053130;28;20582;-69
2021/08/14 04:32:21;;;;;;;12.20;11.20;;;;;;;15.67;100.00;98578.06;5053603;28;20208;-69
2021/08/14 04:34:49;;;;;;;12.47;11.47;;;;;;;15.63;100.00;98579.47;5053123;28;20243;-69
2021/08/14 04:37:17;;;;;;;11.83;10.93;;;;;;;15.71;100.00;98581.19;5053908;28;20213;-69
2021/08/14 04:39:46;;;;;;;11.37;10.17;;;;;;;15.67;100.00;98579.91;5051019;28;20280;-70
2021/08/14 04:42:14;;;;;;;12.70;11.60;;;;;;;15.57;100.00;98581.00;5052010;28;20214;-69
2021/08/14 04:44:42;;;;;;;13.33;12.23;;;;;;;15.54;100.00;98581.38;5051838;28;20207;-69
2021/08/14 04:47:10;;;;;;;12.97;11.73;;;;;;;15.61;100.00;98581.47;5052330;28;20595;-69
2021/08/14 04:49:38;;;;;;;12.87;11.73;;;;;;;15.68;100.00;98587.75;5054934;28;20709;-70
2021/08/14 04:52:06;;;;;;;12.80;11.80;;;;;;;15.69;100.00;98584.06;5052105;28;20226;-70
2021/08/14 04:54:34;;;;;;;11.80;10.80;;;;;;;15.77;100.00;98593.84;5053122;28;20238;-70
2021/08/14 04:57:03;;;;;;;12.07;11.17;;;;;;;15.69;100.00;98585.88;5052584;28;20479;-70
2021/08/14 04:59:31;;;;;;;12.70;11.57;;;;;;;15.69;100.00;98594.75;5048281;28;20220;-70
2021/08/14 05:02:00;;;;;;;12.20;11.30;;;;;;;15.71;100.00;98591.88;5050885;28;20675;-69
2021/08/14 05:04:28;;;;;;;12.70;11.60;;;;;;;15.83;100.00;98586.91;5057030;28;20199;-69
2021/08/14 05:06:56;;;;;;;12.37;11.47;;;;;;;15.89;100.00;98592.41;5044650;28;20229;-71
2021/08/14 05:09:24;;;;;;;13.03;11.83;;;;;;;15.90;100.00;98598.56;5050790;28;20223;-71
2021/08/14 05:11:52;;;;;;;12.50;11.53;;;;;;;15.92;100.00;98593.91;5059349;28;20425;-70
2021/08/14 05:14:21;;;;;;;13.03;12.03;;;;;;;15.98;100.00;98597.66;5050123;28;20211;-69
2021/08/14 05:16:49;;;;;;;13.83;12.73;;;;;;;16.03;100.00;98605.94;5055216;28;20211;-70
2021/08/14 05:19:17;;;;;;;14.67;13.27;;;;;;;16.13;100.00;98598.50;5055750;28;20230;-70
2021/08/14 05:21:45;;;;;;;15.93;14.60;;;;;;;16.23;100.00;98597.38;5052578;28;20203;-70
2021/08/14 05:24:13;;;;;;;16.37;14.93;;;;;;;16.39;100.00;98593.66;5055902;28;20214;-70
2021/08/14 05:26:42;;;;;;;15.53;14.23;;;;;;;16.44;100.00;98601.97;5047767;28;20214;-70
2021/08/14 05:29:10;;;;;;;15.37;13.97;;;;;;;16.47;100.00;98607.75;5052530;28;20804;-70
2021/08/14 05:31:39;;;;;;;15.40;14.00;;;;;;;16.52;100.00;98606.38;5050892;28;20211;-70
2021/08/14 05:34:07;;;;;;;15.90;14.53;;;;;;;16.58;100.00;98608.31;5050008;28;20248;-70
2021/08/14 05:36:35;;;;;;;15.03;13.50;;;;;;;16.62;100.00;98614.94;5055021;28;20211;-70
2021/08/14 05:39:03;;;;;;;16.53;14.93;;;;;;;16.74;100.00;98613.41;5052818;28;20230;-69
2021/08/14 05:41:32;;;;;;;15.87;14.57;;;;;;;16.86;100.00;98608.41;5051378;28;20214;-70
2021/08/14 05:44:00;;;;;;;13.63;12.43;;;;;;;16.96;100.00;98612.63;5053406;28;20207;-70
2021/08/14 05:46:28;;;;;;;15.93;14.63;;;;;;;17.21;100.00;98623.81;5048378;28;20223;-70
2021/08/14 05:48:57;;;;;;;15.67;14.27;;;;;;;17.24;100.00;98618.09;5052092;28;20276;-71
2021/08/14 05:51:25;;;;;;;16.30;14.60;;;;;;;17.35;100.00;98617.56;5054724;28;20207;-69
2021/08/14 05:54:13;;;;;;;14.83;13.53;;;;;;;17.52;100.00;98619.16;5050388;28;20210;-71
2021/08/14 05:56:41;;;;;;;14.93;13.70;;;;;;;17.64;100.00;98626.47;5051506;28;20205;-70
2021/08/14 05:59:09;;;;;;;17.00;15.33;;;;;;;17.69;100.00;98622.38;5051189;28;20241;-69
2021/08/14 06:01:37;;;;;;;15.40;14.17;;;;;;;17.81;100.00;98615.44;5050961;28;20719;-70
2021/08/14 06:04:07;;;;;;;15.03;13.57;;;;;;;17.90;100.00;98624.97;5051361;28;20210;-71
2021/08/14 06:06:35;;;;;;;15.93;14.47;;;;;;;18.03;100.00;98634.19;5048266;28;20254;-70
2021/08/14 06:09:03;;;;;;;16.20;14.53;;;;;;;18.16;100.00;98634.25;5048695;28;20754;-71
2021/08/14 06:11:31;;;;;;;15.57;14.37;;;;;;;18.24;100.00;98630.59;5048966;28;20226;-70
2021/08/14 06:13:59;;;;;;;16.57;15.20;;;;;;;18.31;100.00;98633.28;5050533;28;20415;-70
2021/08/14 06:16:27;;;;;;;14.97;13.73;;;;;;;18.40;100.00;98628.59;5055814;28;20547;-70
2021/08/14 06:18:55;;;;;;;15.13;13.83;;;;;;;18.58;100.00;98630.75;5049903;28;20233;-68
2021/08/14 06:21:24;;;;;;;14.93;13.57;;;;;;;18.77;100.00;98624.63;5051165;28;20226;-69
2021/08/14 06:23:53;;;;;;;15.23;13.93;;;;;;;18.87;100.00;98616.16;5054928;28;20207;-70
2021/08/14 06:26:21;;;;;;;15.27;13.97;;;;;;;19.12;100.00;98622.84;5051442;28;20214;-69
2021/08/14 06:28:49;;;;;;;15.63;14.13;;;;;;;19.04;100.00;98624.72;5050652;28;20229;-70
2021/08/14 06:31:17;;;;;;;14.80;13.60;;;;;;;19.15;100.00;98623.28;5048883;28;20203;-70
2021/08/14 06:33:45;;;;;;;14.80;13.40;;;;;;;19.25;100.00;98622.91;5047470;28;20320;-69
2021/08/14 06:36:13;;;;;;;14.20;13.10;;;;;;;19.38;100.00;98627.47;5051183;28;20703;-70
2021/08/14 06:38:43;;;;;;;18.10;14.03;;;;;;;19.48;100.00;98635.94;5051818;28;20245;-71
2021/08/14 06:41:11;;;;;;;14.57;13.37;;;;;;;19.57;100.00;98630.34;5052245;28;20238;-72
2021/08/14 06:43:39;;;;;;;15.60;13.97;;;;;;;19.66;100.00;98626.41;5057458;28;20203;-71
2021/08/14 06:46:07;;;;;;;14.10;12.87;;;;;;;19.82;100.00;98627.84;5048046;28;20379;-70
2021/08/14 06:48:35;;;;;;;15.37;13.60;;;;;;;20.05;100.00;98621.22;5055758;28;20207;-71
2021/08/14 06:51:03;;;;;;;14.60;13.37;;;;;;;20.07;100.00;98616.47;5050290;28;20195;-71
2021/08/14 06:53:31;;;;;;;13.47;12.43;;;;;;;20.12;100.00;98616.66;5047542;28;20222;-70
2021/08/14 06:56:01;;;;;;;15.20;13.77;;;;;;;20.23;100.00;98625.94;5047509;28;20242;-71
2021/08/14 06:58:29;;;;;;;14.73;13.37;;;;;;;20.40;100.00;98629.00;5054256;28;20207;-70
2021/08/14 07:00:57;;;;;;;14.83;13.60;;;;;;;20.48;100.00;98627.94;5049106;28;20242;-70
2021/08/14 07:03:25;;;;;;;14.63;13.50;;;;;;;20.54;100.00;98627.91;5045996;28;20260;-71
2021/08/14 07:05:53;;;;;;;14.07;12.57;;;;;;;20.63;100.00;98625.78;5047352;28;20218;-71
2021/08/14 07:08:21;;;;;;;13.33;12.33;;;;;;;20.88;100.00;98622.41;5050795;28;20207;-71
2021/08/14 07:10:49;;;;;;;14.67;13.17;;;;;;;21.02;100.00;98617.72;5050498;28;20540;-70
2021/08/14 07:13:19;;;;;;;15.27;13.63;;;;;;;21.19;100.00;98631.50;5046855;28;20500;-69
2021/08/14 07:15:46;;;;;;;13.80;12.70;;;;;;;21.28;100.00;98624.00;5050694;28;20198;-69
2021/08/14 07:18:15;;;;;;;13.27;12.10;;;;;;;21.39;100.00;98619.78;5050617;28;20218;-68
2021/08/14 07:20:42;;;;;;;13.53;12.47;;;;;;;21.45;100.00;98626.97;5050693;28;20253;-71
2021/08/14 07:23:10;;;;;;;14.40;13.13;;;;;;;21.51;100.00;98619.91;5054516;28;20204;-68
2021/08/14 07:25:38;;;;;;;13.37;12.20;;;;;;;21.61;100.00;98620.22;5050510;28;20219;-69
2021/08/14 07:28:06;;;;;;;13.20;12.03;;;;;;;21.55;100.00;98621.91;5057355;28;20754;-68
2021/08/14 07:30:36;;;;;;;14.47;13.17;;;;;;;21.61;100.00;98631.00;5059392;28;20231;-68
2021/08/14 07:33:04;;;;;;;14.13;12.23;;;;;;;21.80;100.00;98613.03;5055529;28;20233;-70
2021/08/14 07:35:32;;;;;;;14.20;13.00;;;;;;;21.78;100.00;98614.28;5057290;28;20214;-69
2021/08/14 07:38:00;;;;;;;15.43;13.87;;;;;;;21.74;100.00;98611.22;5053526;28;20211;-67
2021/08/14 07:40:28;;;;;;;12.67;11.73;;;;;;;21.91;100.00;98616.88;5056212;28;20461;-68
2021/08/14 07:42:57;;;;;;;12.87;11.87;;;;;;;21.91;100.00;98611.47;5052185;28;20213;-68
2021/08/14 07:45:25;;;;;;;12.80;11.60;;;;;;;22.01;100.00;98610.13;5056494;28;20208;-69
2021/08/14 07:47:55;;;;;;;12.50;11.40;;;;;;;22.10;100.00;98603.38;5057641;28;20200;-69
2021/08/14 07:50:24;;;;;;;13.20;12.10;;;;;;;22.32;100.00;98601.06;5059580;28;20230;-69
2021/08/14 07:52:53;;;;;;;13.00;11.90;;;;;;;22.38;100.00;98600.16;5052659;28;20211;-69
2021/08/14 07:55:22;;;;;;;14.07;12.87;;;;;;;22.47;100.00;98597.19;5056669;28;20314;-69
2021/08/14 07:57:51;;;;;;;13.33;12.20;;;;;;;22.63;100.00;98591.16;5048176;28;20211;-69
2021/08/14 08:00:21;;;;;;;13.30;12.10;;;;;;;22.73;100.00;98598.72;5050350;28;20281;-69
2021/08/14 08:02:50;;;;;;;12.50;11.33;;;;;;;22.84;100.00;98595.22;5051643;28;20207;-70
2021/08/14 08:05:20;;;;;;;11.93;11.03;;;;;;;22.99;100.00;98594.00;5045544;28;20203;-70
2021/08/14 08:07:49;;;;;;;12.77;11.73;;;;;;;23.22;100.00;98589.69;5052232;28;20317;-68
2021/08/14 08:10:18;;;;;;;12.10;11.03;;;;;;;23.16;100.00;98591.47;5055610;28;20226;-70
2021/08/14 08:12:46;;;;;;;12.80;11.57;;;;;;;23.25;100.00;98583.84;5053102;28;20195;-69
2021/08/14 08:15:16;;;;;;;12.73;11.00;;;;;;;23.37;100.00;98578.47;5050209;28;20199;-69
2021/08/14 08:17:44;;;;;;;12.13;11.10;;;;;;;23.44;100.00;98584.56;5052323;28;20289;-69
2021/08/14 08:20:14;;;;;;;12.77;11.17;;;;;;;23.53;100.00;98585.06;5051331;28;20230;-70
2021/08/14 08:22:44;;;;;;;12.60;11.50;;;;;;;23.70;100.00;98582.47;5057178;28;20249;-70
2021/08/14 08:25:13;;;;;;;12.80;11.53;;;;;;;23.64;99.11;98580.72;5049834;28;20218;-70
2021/08/14 08:27:42;;;;;;;11.57;10.50;;;;;;;23.72;97.39;98579.53;5052920;28;20557;-71
2021/08/14 08:30:12;;;;;;;11.27;10.47;;;;;;;23.92;97.43;98581.88;5050167;28;20226;-72
2021/08/14 08:32:41;;;;;;;11.10;10.20;;;;;;;24.07;98.29;98567.91;5048284;28;20210;-70
2021/08/14 08:35:10;;;;;;;11.00;10.07;;;;;;;24.17;94.60;98576.22;5051076;28;20680;-71
2021/08/14 08:37:38;;;;;;;10.57;9.77;;;;;;;24.41;93.76;98576.97;5051227;28;20207;-70
2021/08/14 08:40:14;;;;;;;11.30;10.50;;;;;;;24.49;90.73;98574.94;5052869;28;20218;-71
2021/08/14 08:42:45;;;;;;;10.60;9.63;;;;;;;24.50;88.39;98568.47;5054940;28;20226;-71
2021/08/14 08:45:14;;;;;;;10.90;9.90;;;;;;;24.67;89.24;98571.22;5053594;28;20227;-74
2021/08/14 08:47:43;;;;;;;10.40;9.53;;;;;;;24.70;88.90;98563.44;5056170;28;20795;-73
2021/08/14 08:50:13;;;;;;;11.40;10.40;;;;;;;24.90;83.30;98566.81;5048936;28;20230;-71
2021/08/14 08:52:42;;;;;;;10.80;9.80;;;;;;;24.99;84.36;98562.63;5055885;28;20568;-72
2021/08/14 08:55:13;;;;;;;10.97;9.87;;;;;;;25.22;81.59;98561.66;5050155;28;20204;-71
2021/08/14 08:57:41;;;;;;;10.47;9.07;;;;;;;25.28;79.25;98570.69;5053256;28;20198;-72
2021/08/14 09:00:14;;;;;;;10.77;9.97;;;;;;;25.49;79.32;98560.19;5056569;28;20724;-70
2021/08/14 09:02:42;;;;;;;9.73;8.90;;;;;;;25.45;80.68;98554.41;5052196;28;20231;-72
2021/08/14 09:05:13;;;;;;;10.10;9.27;;;;;;;25.57;76.42;98552.44;5049469;28;20613;-77
2021/08/14 09:07:42;;;;;;;10.27;9.47;;;;;;;25.51;78.71;98553.44;5050283;28;20222;-72
2021/08/14 09:10:14;;;;;;;10.97;9.97;;;;;;;25.64;78.02;98551.44;5050379;28;20283;-77
2021/08/14 09:12:43;;;;;;;10.30;9.50;;;;;;;25.70;78.54;98554.00;5050812;28;20288;-78
2021/08/14 09:15:16;;;;;;;12.07;10.17;;;;;;;26.00;75.54;98552.78;5055965;28;20671;-77
2021/08/14 09:17:46;;;;;;;10.30;9.50;;;;;;;25.98;75.30;98544.06;5050667;28;20208;-75
2021/08/14 09:20:16;;;;;;;10.63;9.73;;;;;;;26.10;74.44;98551.25;5050982;28;20716;-74
2021/08/14 09:22:46;;;;;;;10.70;9.27;;;;;;;26.08;69.49;98548.78;5055888;28;20586;-77
2021/08/14 09:25:18;;;;;;;9.70;8.80;;;;;;;26.22;70.17;98543.03;5049089;28;20239;-76
2021/08/14 09:27:50;;;;;;;9.13;8.43;;;;;;;26.29;67.94;98549.88;5050455;28;20203;-75
2021/08/14 09:30:19;;;;;;;9.43;8.60;;;;;;;26.31;67.54;98546.94;5050744;28;20223;-73
2021/08/14 09:33:05;;;;;;;9.00;8.20;;;;;;;26.43;67.14;98544.88;5052885;28;20197;-72
2021/08/14 09:35:34;;;;;;;8.33;7.83;;;;;;;26.61;66.74;98544.78;5055531;28;20208;-75
2021/08/14 09:38:06;;;;;;;10.73;9.80;;;;;;;26.32;64.64;98545.00;5055357;28;20213;-73
2021/08/14 09:40:40;;;;;;;9.50;8.80;;;;;;;26.18;65.56;98544.59;5052395;28;20280;-75
2021/08/14 09:43:09;;;;;;;9.70;8.63;;;;;;;26.27;65.76;98545.78;5047019;28;20236;-74
2021/08/14 09:45:37;;;;;;;9.37;8.50;;;;;;;26.41;63.99;98535.38;5054032;28;20219;-74
2021/08/14 09:48:20;;;;;;;9.77;8.97;;;;;;;26.49;65.83;98526.75;5051771;28;20212;-75
2021/08/14 09:50:49;;;;;;;9.70;9.00;;;;;;;26.55;67.82;98530.34;5043543;28;20215;-70
2021/08/14 09:53:20;;;;;;;10.40;9.33;;;;;;;26.63;64.50;98537.19;5049937;28;20205;-74
2021/08/14 09:55:53;;;;;;;8.50;7.90;;;;;;;26.68;63.14;98532.66;5050651;28;20203;-71
2021/08/14 09:58:22;;;;;;;7.87;7.37;;;;;;;26.61;54.82;98523.88;5052680;28;20234;-72
2021/08/14 10:00:50;;;;;;;8.00;7.40;;;;;;;26.24;56.03;98525.38;5051860;28;20689;-74
2021/08/14 10:03:18;;;;;;;7.83;7.13;;;;;;;26.26;57.53;98523.22;5051322;28;20275;-73
2021/08/14 10:05:47;;;;;;;7.90;7.30;;;;;;;26.20;56.23;98516.09;5045271;28;20303;-74
2021/08/14 10:08:15;;;;;;;7.83;7.23;;;;;;;26.40;55.15;98509.28;5053100;28;20689;-75
2021/08/14 10:10:44;;;;;;;7.57;6.87;;;;;;;26.48;54.75;98499.81;5050233;28;20233;-74
2021/08/14 10:13:19;;;;;;;7.60;7.00;;;;;;;26.37;53.04;98501.63;5054823;28;20215;-74
2021/08/14 10:15:47;;;;;;;11.63;7.07;;;;;;;26.29;54.15;98498.28;5051019;28;20207;-76
2021/08/14 10:18:17;;;;;;;7.10;6.50;;;;;;;26.57;53.77;98495.59;5053086;28;20223;-75
2021/08/14 10:20:45;;;;;;;7.07;6.30;;;;;;;26.55;54.70;98503.97;5057029;28;20678;-74
2021/08/14 10:23:18;;;;;;;7.43;6.60;;;;;;;26.68;54.68;98500.03;5052381;28;20221;-72
2021/08/14 10:25:47;;;;;;;7.27;6.63;;;;;;;26.74;52.74;98487.31;5051739;28;20213;-75
2021/08/14 10:28:16;;;;;;;8.13;7.37;;;;;;;26.79;51.35;98494.69;5047586;28;20212;-74
2021/08/14 10:30:48;;;;;;;7.17;6.40;;;;;;;26.82;53.51;98492.28;5051475;28;20223;-75
2021/08/14 10:33:37;;;;;;;7.00;6.30;;;;;;;27.23;50.85;98488.25;5050107;28;20268;-75
2021/08/14 10:36:36;;;;;;;7.00;6.33;;;;;;;27.34;50.98;98483.72;5050023;28;20218;-75
2021/08/14 10:39:19;;;;;;;7.70;7.00;;;;;;;27.09;51.27;98482.44;5053500;28;20236;-74
2021/08/14 10:41:49;;;;;;;6.67;6.17;;;;;;;27.51;49.82;98473.50;5052844;28;20199;-75
2021/08/14 10:44:45;;;;;;;7.13;6.43;;;;;;;27.69;49.08;98469.50;5045171;28;20574;-74
2021/08/14 10:47:46;;;;;;;7.00;6.40;;;;;;;28.09;48.37;98469.94;5046797;28;20214;-74
2021/08/14 10:50:55;;;;;;;6.90;6.40;;;;;;;28.65;46.54;98465.72;5045347;28;20219;-77
2021/08/14 10:53:23;;;;;;;6.73;6.27;;;;;;;29.24;46.32;98468.16;5044603;28;20511;-79
2021/08/14 10:55:53;;;;;;;6.87;6.37;;;;;;;29.94;40.81;98461.16;5047010;28;20201;-75
2021/08/14 10:58:23;;;;;;;6.83;6.10;;;;;;;29.96;39.27;98465.22;5049369;28;20594;-75
2021/08/14 11:00:52;;;;;;;6.43;5.93;;;;;;;29.98;39.27;98463.03;5050324;28;20283;-76
2021/08/14 11:03:32;;;;;;;6.43;5.93;;;;;;;30.09;41.44;98465.72;5046777;28;20713;-74
2021/08/14 11:06:25;;;;;;;6.80;6.30;;;;;;;30.13;41.18;98472.28;5043510;28;20230;-76
2021/08/14 11:09:30;;;;;;;6.23;5.57;;;;;;;30.08;40.85;98459.47;5047930;28;20227;-76
2021/08/14 11:11:59;;;;;;;7.93;6.67;;;;;;;29.83;40.77;98455.72;5044190;28;20214;-75
2021/08/14 11:14:41;;;;;;;6.53;6.10;;;;;;;29.80;41.49;98459.00;5052611;28;20205;-75
2021/08/14 11:17:10;;;;;;;6.03;5.53;;;;;;;31.27;36.68;98449.59;5047920;28;20283;-76
2021/08/14 11:19:48;;;;;;;7.53;6.43;;;;;;;30.50;39.64;98446.38;5054981;28;20227;-73
2021/08/14 11:22:29;;;;;;;6.90;5.93;;;;;;;30.51;38.97;98436.22;5048361;28;20209;-75
2021/08/14 11:24:59;;;;;;;6.70;6.30;;;;;;;30.31;38.55;98448.97;5047758;28;20211;-73
2021/08/14 11:27:29;;;;;;;5.67;5.13;;;;;;;29.61;37.17;98442.44;5048129;28;20210;-71